Terminal Aerodrome Forecast
Issued by NWS

Home | Current Version | Previous Version | Text Only | Print | Product List | Glossary On
Versions: 1 2 3 4 5 6 7 8 9 10 11 12 13 14 15 16 17
000
FTUS43 KAPX 271403 AAB
TAFTVC
TAF AMD
KTVC 271403Z 2714/2812 26006KT P6SM SCT030
      TEMPO 2714/2718 BKN030
     FM271800 25009KT P6SM SCT030
     FM280000 22004KT P6SM SCT035=

USA.gov is the U.S. government's official web portal to all federal, state and local government web resources and services.